createdAt,value
2018-07-16T00:00:06.430Z,14.24
2018-07-16T00:01:06.405Z,14.22
2018-07-16T00:02:06.385Z,14.20
2018-07-16T00:03:06.383Z,14.17
2018-07-16T00:04:06.375Z,14.18
2018-07-16T00:05:06.378Z,14.18
2018-07-16T00:06:06.362Z,14.20
2018-07-16T00:07:06.331Z,14.17
2018-07-16T00:08:06.323Z,14.10
2018-07-16T00:09:06.311Z,13.99
2018-07-16T00:10:06.304Z,13.95
2018-07-16T00:11:06.300Z,13.92
2018-07-16T00:12:06.292Z,13.97
2018-07-16T00:13:06.268Z,13.88
2018-07-16T00:14:06.257Z,13.92
2018-07-16T00:15:06.245Z,13.88
2018-07-16T00:16:06.268Z,13.88
2018-07-16T00:17:06.220Z,13.87
2018-07-16T00:18:06.226Z,13.89
2018-07-16T00:19:06.916Z,13.89
2018-07-16T00:20:06.188Z,13.91
2018-07-16T00:21:06.173Z,13.85
2018-07-16T00:22:06.188Z,13.89
2018-07-16T00:23:06.156Z,13.97
2018-07-16T00:24:06.161Z,13.91
2018-07-16T00:25:06.134Z,13.87
2018-07-16T00:26:06.117Z,13.85
2018-07-16T00:27:06.110Z,13.89
2018-07-16T00:28:06.108Z,13.79
2018-07-16T00:29:06.086Z,13.81
2018-07-16T00:30:06.088Z,13.79
2018-07-16T00:31:06.065Z,13.78
2018-07-16T00:32:06.056Z,13.78
2018-07-16T00:33:06.063Z,13.78
2018-07-16T00:34:06.033Z,13.75
2018-07-16T00:35:06.017Z,13.75
2018-07-16T00:36:06.027Z,13.84
2018-07-16T00:37:06.004Z,13.82
2018-07-16T00:38:06.920Z,13.78
2018-07-16T00:39:06.000Z,13.71
2018-07-16T00:40:05.964Z,13.75
2018-07-16T00:41:05.963Z,13.75
2018-07-16T00:42:05.942Z,13.67
2018-07-16T00:43:05.930Z,13.67
2018-07-16T00:44:05.918Z,13.73
2018-07-16T00:45:05.915Z,13.79
2018-07-16T00:46:05.897Z,13.70
2018-07-16T00:47:05.898Z,13.67
2018-07-16T00:48:05.873Z,13.66
2018-07-16T00:49:05.865Z,13.73
2018-07-16T00:50:05.873Z,13.71
2018-07-16T00:51:05.849Z,13.62
2018-07-16T00:52:05.823Z,13.54
2018-07-16T00:53:05.833Z,13.69
2018-07-16T00:54:05.809Z,13.67
2018-07-16T00:55:05.797Z,13.67
2018-07-16T00:56:05.810Z,13.67
2018-07-16T00:57:05.771Z,13.66
2018-07-16T00:58:05.765Z,13.70
2018-07-16T00:59:05.766Z,13.67
2018-07-16T01:00:05.740Z,13.75
2018-07-16T01:01:05.732Z,13.75
2018-07-16T01:02:05.737Z,13.78
2018-07-16T01:03:05.707Z,13.81
2018-07-16T01:04:05.697Z,13.75
2018-07-16T01:05:05.702Z,13.79
2018-07-16T01:06:05.674Z,13.79
2018-07-16T01:07:05.665Z,13.91
2018-07-16T01:08:05.660Z,13.81
2018-07-16T01:09:05.650Z,13.85
2018-07-16T01:10:05.631Z,13.91
2018-07-16T01:11:05.628Z,13.92
2018-07-16T01:12:05.605Z,13.92
2018-07-16T01:13:05.608Z,13.92
2018-07-16T01:14:05.582Z,13.97
2018-07-16T01:15:05.595Z,13.96
2018-07-16T01:16:05.559Z,13.97
2018-07-16T01:17:05.565Z,13.96
2018-07-16T01:18:05.538Z,14.04
2018-07-16T01:19:05.522Z,14.03
2018-07-16T01:20:05.517Z,14.04
2018-07-16T01:21:05.528Z,14.07
2018-07-16T01:22:05.493Z,14.07
2018-07-16T01:23:05.502Z,14.09
2018-07-16T01:24:05.467Z,14.06
2018-07-16T01:25:05.465Z,14.10
2018-07-16T01:26:05.450Z,14.21
2018-07-16T01:27:05.447Z,14.10
2018-07-16T01:28:05.428Z,14.18
2018-07-16T01:29:05.424Z,14.22
2018-07-16T01:30:05.404Z,14.25
2018-07-16T01:31:05.388Z,14.27
2018-07-16T01:32:05.396Z,14.28
2018-07-16T01:33:05.370Z,14.28
2018-07-16T01:34:05.357Z,14.28
2018-07-16T01:35:05.361Z,14.40
2018-07-16T01:36:05.336Z,14.45
2018-07-16T01:37:05.327Z,14.39
2018-07-16T01:38:05.334Z,14.40
2018-07-16T01:39:05.303Z,14.55
2018-07-16T01:40:05.289Z,14.52
2018-07-16T01:41:05.296Z,14.55
2018-07-16T01:42:05.271Z,14.54
2018-07-16T01:43:05.256Z,14.52
2018-07-16T01:44:05.277Z,14.55
2018-07-16T01:45:05.235Z,14.58
2018-07-16T01:46:05.222Z,14.58
2018-07-16T01:47:05.252Z,14.55
2018-07-16T01:48:05.198Z,14.62
2018-07-16T01:49:05.191Z,14.64
2018-07-16T01:50:05.184Z,14.68
2018-07-16T01:51:05.166Z,14.64
2018-07-16T01:52:05.159Z,14.69
2018-07-16T01:53:05.154Z,14.68
2018-07-16T01:54:05.131Z,14.69
2018-07-16T01:55:05.144Z,14.75
2018-07-16T01:56:05.113Z,14.72
2018-07-16T01:57:05.103Z,14.73
2018-07-16T01:58:05.087Z,14.78
2018-07-16T01:59:05.092Z,14.77
2018-07-16T02:00:05.072Z,14.81
2018-07-16T02:01:05.075Z,14.81
2018-07-16T02:02:05.048Z,14.78
2018-07-16T02:03:05.038Z,14.77
2018-07-16T02:04:05.018Z,14.77
2018-07-16T02:05:05.025Z,14.78
2018-07-16T02:06:04.995Z,14.77
2018-07-16T02:07:05.002Z,14.78
2018-07-16T02:08:04.978Z,14.77
2018-07-16T02:09:04.964Z,14.83
2018-07-16T02:10:04.958Z,14.83
2018-07-16T02:11:04.953Z,14.89
2018-07-16T02:12:04.958Z,14.92
2018-07-16T02:13:04.919Z,14.99
2018-07-16T02:14:04.909Z,14.94
2018-07-16T02:15:04.898Z,14.95
2018-07-16T02:16:04.883Z,15.03
2018-07-16T02:17:04.892Z,14.94
2018-07-16T02:18:04.892Z,15.02
2018-07-16T02:19:04.858Z,14.98
2018-07-16T02:20:04.847Z,14.96
2018-07-16T02:21:04.830Z,14.96
2018-07-16T02:22:04.820Z,15.06
2018-07-16T02:23:04.819Z,14.98
2018-07-16T02:24:04.802Z,14.99
2018-07-16T02:25:04.789Z,15.09
2018-07-16T02:26:04.772Z,15.07
2018-07-16T02:27:04.769Z,15.07
2018-07-16T02:28:04.751Z,15.11
2018-07-16T02:29:04.788Z,15.11
2018-07-16T02:30:04.729Z,15.09
2018-07-16T02:31:04.720Z,15.14
2018-07-16T02:32:04.711Z,15.13
2018-07-16T02:33:04.699Z,15.14
2018-07-16T02:34:04.682Z,15.06
2018-07-16T02:35:04.723Z,15.17
2018-07-16T02:36:04.663Z,15.21
2018-07-16T02:37:04.651Z,15.20
2018-07-16T02:38:04.658Z,15.20
2018-07-16T02:39:04.627Z,15.27
2018-07-16T02:40:04.622Z,15.28
2018-07-16T02:41:04.637Z,15.20
2018-07-16T02:42:04.600Z,15.27
2018-07-16T02:43:04.592Z,15.32
2018-07-16T02:44:04.573Z,15.27
2018-07-16T02:45:04.559Z,15.28
2018-07-16T02:46:04.553Z,15.28
2018-07-16T02:47:04.561Z,15.23
2018-07-16T02:48:04.533Z,15.27
2018-07-16T02:49:04.519Z,15.21
2018-07-16T02:50:04.506Z,15.31
2018-07-16T02:51:04.499Z,15.25
2018-07-16T02:52:04.504Z,15.28
2018-07-16T02:53:04.482Z,15.28
2018-07-16T02:54:04.463Z,15.34
2018-07-16T02:55:04.454Z,15.39
2018-07-16T02:56:04.442Z,15.49
2018-07-16T02:57:04.424Z,15.41
2018-07-16T02:58:04.433Z,15.38
2018-07-16T02:59:04.423Z,15.47
2018-07-16T03:00:04.397Z,15.47
2018-07-16T03:01:04.389Z,15.39
2018-07-16T03:02:04.415Z,15.49
2018-07-16T03:03:04.361Z,15.44
2018-07-16T03:04:04.374Z,15.47
2018-07-16T03:05:04.342Z,15.43
2018-07-16T03:06:04.324Z,15.41
2018-07-16T03:07:04.318Z,15.43
2018-07-16T03:08:04.308Z,15.39
2018-07-16T03:09:04.316Z,15.44
2018-07-16T03:10:04.305Z,15.47
2018-07-16T03:11:04.273Z,15.47
2018-07-16T03:12:04.264Z,15.51
2018-07-16T03:13:04.251Z,15.43
2018-07-16T03:14:04.241Z,15.46
2018-07-16T03:15:04.271Z,15.49
2018-07-16T03:16:04.238Z,15.47
2018-07-16T03:17:04.209Z,15.60
2018-07-16T03:18:04.282Z,15.54
2018-07-16T03:19:04.181Z,15.53
2018-07-16T03:20:04.236Z,15.51
2018-07-16T03:21:04.174Z,15.47
2018-07-16T03:22:04.178Z,15.44
2018-07-16T03:23:04.136Z,15.51
2018-07-16T03:24:04.128Z,15.36
2018-07-16T03:25:04.120Z,15.41
2018-07-16T03:26:04.137Z,15.28
2018-07-16T03:27:04.093Z,15.35
2018-07-16T03:28:04.097Z,15.31
2018-07-16T03:29:04.072Z,15.25
2018-07-16T03:30:04.064Z,15.29
2018-07-16T03:31:04.051Z,15.28
2018-07-16T03:32:04.066Z,15.28
2018-07-16T03:33:04.024Z,15.29
2018-07-16T03:34:04.928Z,15.28
2018-07-16T03:35:04.000Z,15.31
2018-07-16T03:36:03.995Z,15.27
2018-07-16T03:37:03.979Z,15.34
2018-07-16T03:38:03.983Z,15.27
2018-07-16T03:39:03.968Z,15.31
2018-07-16T03:40:03.981Z,15.19
2018-07-16T03:41:03.936Z,15.25
2018-07-16T03:42:03.922Z,15.23
2018-07-16T03:43:03.918Z,15.27
2018-07-16T03:44:03.913Z,15.19
2018-07-16T03:45:03.890Z,15.19
2018-07-16T03:46:03.904Z,15.13
2018-07-16T03:47:03.875Z,15.03
2018-07-16T03:48:03.893Z,14.98
2018-07-16T03:49:03.869Z,15.01
2018-07-16T03:50:03.834Z,14.99
2018-07-16T03:51:03.818Z,14.96
2018-07-16T03:52:03.830Z,15.06
2018-07-16T03:53:03.802Z,15.01
2018-07-16T03:54:03.785Z,15.09
2018-07-16T03:55:03.800Z,14.98
2018-07-16T03:56:03.778Z,15.09
2018-07-16T03:57:03.758Z,15.11
2018-07-16T03:58:03.762Z,15.11
2018-07-16T03:59:03.743Z,15.13
2018-07-16T04:00:03.730Z,15.10
2018-07-16T04:01:03.738Z,15.13
2018-07-16T04:02:03.706Z,15.14
2018-07-16T04:03:03.699Z,15.16
2018-07-16T04:04:03.716Z,15.14
2018-07-16T04:05:03.668Z,15.09
2018-07-16T04:06:03.665Z,15.13
2018-07-16T04:07:03.652Z,15.11
2018-07-16T04:08:03.635Z,15.10
2018-07-16T04:09:03.619Z,15.13
2018-07-16T04:10:03.624Z,15.13
2018-07-16T04:11:03.623Z,15.11
2018-07-16T04:12:03.590Z,15.13
2018-07-16T04:13:03.583Z,15.20
2018-07-16T04:14:03.565Z,15.17
2018-07-16T04:15:03.558Z,15.14
2018-07-16T04:16:03.551Z,15.11
2018-07-16T04:17:03.566Z,15.11
2018-07-16T04:18:03.525Z,15.10
2018-07-16T04:19:03.509Z,15.11
2018-07-16T04:20:03.499Z,15.01
2018-07-16T04:21:03.487Z,15.06
2018-07-16T04:22:03.491Z,15.11
2018-07-16T04:23:03.474Z,14.99
2018-07-16T04:24:03.454Z,15.06
2018-07-16T04:25:03.443Z,15.09
2018-07-16T04:26:03.429Z,15.11
2018-07-16T04:27:03.425Z,15.06
2018-07-16T04:28:03.464Z,14.99
2018-07-16T04:29:03.401Z,15.02
2018-07-16T04:30:03.389Z,15.07
2018-07-16T04:31:03.480Z,15.11
2018-07-16T04:32:03.366Z,14.99
2018-07-16T04:33:03.354Z,15.10
2018-07-16T04:34:03.386Z,15.10
2018-07-16T04:35:03.329Z,15.17
2018-07-16T04:36:03.320Z,15.11
2018-07-16T04:37:03.305Z,15.09
2018-07-16T04:38:03.301Z,15.17
2018-07-16T04:39:03.286Z,15.21
2018-07-16T04:40:03.292Z,15.13
2018-07-16T04:41:03.262Z,15.11
2018-07-16T04:42:03.249Z,15.13
2018-07-16T04:43:03.245Z,15.19
2018-07-16T04:44:03.232Z,15.19
2018-07-16T04:45:03.247Z,15.16
2018-07-16T04:46:03.228Z,15.10
2018-07-16T04:47:03.191Z,14.95
2018-07-16T04:48:03.189Z,15.06
2018-07-16T04:49:03.170Z,14.94
2018-07-16T04:50:03.155Z,14.89
2018-07-16T04:51:03.192Z,14.94
2018-07-16T04:52:03.161Z,14.92
2018-07-16T04:53:03.124Z,14.88
2018-07-16T04:54:03.122Z,14.91
2018-07-16T04:55:03.107Z,14.91
2018-07-16T04:56:03.140Z,14.91
2018-07-16T04:57:03.105Z,14.94
2018-07-16T04:58:03.085Z,15.02
2018-07-16T04:59:03.065Z,15.01
2018-07-16T05:00:03.048Z,14.98
2018-07-16T05:01:03.040Z,14.94
2018-07-16T05:02:03.033Z,14.99
2018-07-16T05:03:03.028Z,14.92
2018-07-16T05:04:03.016Z,14.95
2018-07-16T05:05:02.991Z,14.94
2018-07-16T05:06:02.984Z,14.99
2018-07-16T05:07:02.969Z,15.06
2018-07-16T05:08:02.970Z,14.99
2018-07-16T05:09:02.943Z,14.91
2018-07-16T05:10:02.959Z,15.01
2018-07-16T05:11:02.926Z,15.07
2018-07-16T05:12:02.914Z,15.03
2018-07-16T05:13:02.912Z,15.01
2018-07-16T05:14:02.896Z,14.98
2018-07-16T05:15:02.887Z,15.10
2018-07-16T05:16:03.436Z,15.01
2018-07-16T05:17:02.859Z,15.10
2018-07-16T05:18:02.951Z,15.16
2018-07-16T05:19:02.839Z,15.16
2018-07-16T05:20:02.820Z,15.11
2018-07-16T05:21:02.815Z,15.21
2018-07-16T05:22:02.813Z,15.20
2018-07-16T05:23:02.789Z,15.32
2018-07-16T05:24:02.854Z,15.27
2018-07-16T05:25:02.772Z,15.31
2018-07-16T05:26:02.757Z,15.27
2018-07-16T05:27:02.750Z,15.28
2018-07-16T05:28:02.755Z,15.28
2018-07-16T05:29:02.719Z,15.32
2018-07-16T05:30:02.726Z,15.32
2018-07-16T05:31:02.701Z,15.35
2018-07-16T05:32:02.753Z,15.39
2018-07-16T05:33:02.681Z,15.38
2018-07-16T05:34:02.679Z,15.38
2018-07-16T05:35:02.666Z,15.44
2018-07-16T05:36:02.649Z,15.39
2018-07-16T05:37:02.637Z,15.41
2018-07-16T05:38:02.686Z,15.43
2018-07-16T05:39:02.608Z,15.50
2018-07-16T05:40:02.644Z,15.47
2018-07-16T05:41:02.586Z,15.51
2018-07-16T05:42:02.576Z,15.49
2018-07-16T05:43:02.562Z,15.53
2018-07-16T05:44:02.552Z,15.53
2018-07-16T05:45:02.543Z,15.56
2018-07-16T05:46:02.679Z,15.59
2018-07-16T05:47:02.524Z,15.64
2018-07-16T05:48:02.511Z,15.65
2018-07-16T05:49:02.500Z,15.60
2018-07-16T05:50:02.491Z,15.62
2018-07-16T05:51:02.474Z,15.67
2018-07-16T05:52:02.501Z,15.71
2018-07-16T05:53:02.461Z,15.75
2018-07-16T05:54:02.441Z,15.78
2018-07-16T05:55:02.441Z,15.76
2018-07-16T05:56:02.426Z,15.69
2018-07-16T05:57:02.430Z,15.82
2018-07-16T05:58:02.416Z,15.92
2018-07-16T05:59:02.390Z,15.90
2018-07-16T06:00:02.372Z,15.90
2018-07-16T06:01:02.366Z,16.00
2018-07-16T06:02:02.355Z,15.96
2018-07-16T06:03:02.372Z,16.00
2018-07-16T06:04:02.343Z,15.96
2018-07-16T06:05:02.321Z,16.01
2018-07-16T06:06:02.311Z,15.96
2018-07-16T06:07:02.301Z,16.00
2018-07-16T06:08:02.283Z,16.09
2018-07-16T06:09:02.317Z,16.08
2018-07-16T06:10:02.278Z,16.09
2018-07-16T06:11:02.259Z,16.11
2018-07-16T06:12:02.245Z,16.17
2018-07-16T06:13:02.235Z,16.23
2018-07-16T06:14:02.215Z,16.25
2018-07-16T06:15:02.222Z,16.23
2018-07-16T06:16:02.212Z,16.27
2018-07-16T06:17:02.193Z,16.28
2018-07-16T06:18:02.177Z,16.17
2018-07-16T06:19:02.201Z,16.34
2018-07-16T06:20:02.155Z,16.33
2018-07-16T06:21:02.143Z,16.38
2018-07-16T06:22:02.144Z,16.41
2018-07-16T06:23:02.118Z,16.46
2018-07-16T06:24:02.125Z,16.50
2018-07-16T06:25:02.130Z,16.52
2018-07-16T06:26:02.093Z,16.48
2018-07-16T06:27:02.074Z,16.56
2018-07-16T06:28:02.077Z,16.67
2018-07-16T06:29:02.055Z,16.64
2018-07-16T06:30:02.044Z,16.66
2018-07-16T06:31:02.057Z,16.75
2018-07-16T06:32:02.015Z,16.78
2018-07-16T06:33:02.008Z,16.78
2018-07-16T06:34:02.013Z,16.82
2018-07-16T06:35:01.991Z,16.83
2018-07-16T06:36:01.978Z,16.88
2018-07-16T06:37:01.974Z,16.93
2018-07-16T06:38:02.002Z,16.91
2018-07-16T06:39:01.940Z,16.89
2018-07-16T06:40:01.997Z,17.00
2018-07-16T06:41:02.377Z,17.04
2018-07-16T06:42:01.921Z,17.04
2018-07-16T06:43:01.895Z,17.06
2018-07-16T06:44:01.882Z,17.14
2018-07-16T06:45:01.877Z,17.14
2018-07-16T06:46:01.877Z,17.15
2018-07-16T06:47:01.880Z,17.11
2018-07-16T06:48:01.837Z,17.11
2018-07-16T06:49:01.823Z,17.15
2018-07-16T06:50:01.819Z,17.15
2018-07-16T06:51:01.810Z,17.11
2018-07-16T06:52:01.806Z,17.19
2018-07-16T06:53:01.804Z,17.15
2018-07-16T06:54:01.781Z,17.18
2018-07-16T06:55:01.794Z,17.26
2018-07-16T06:56:01.755Z,17.22
2018-07-16T06:57:01.739Z,17.28
2018-07-16T06:58:01.764Z,17.34
2018-07-16T06:59:01.715Z,17.28
2018-07-16T07:00:01.705Z,17.37
2018-07-16T07:01:01.692Z,17.31
2018-07-16T07:02:01.685Z,17.25
2018-07-16T07:03:01.672Z,17.15
2018-07-16T07:04:01.702Z,17.12
2018-07-16T07:05:01.649Z,17.12
2018-07-16T07:06:01.636Z,17.12
2018-07-16T07:07:01.626Z,17.08
2018-07-16T07:08:01.610Z,17.06
2018-07-16T07:09:01.630Z,17.14
2018-07-16T07:10:01.651Z,17.18
2018-07-16T07:11:01.579Z,17.21
2018-07-16T07:12:01.574Z,17.28
2018-07-16T07:13:01.552Z,17.28
2018-07-16T07:14:01.592Z,17.33
2018-07-16T07:15:01.543Z,17.33
2018-07-16T07:16:01.541Z,17.43
2018-07-16T07:17:01.511Z,17.38
2018-07-16T07:18:01.565Z,17.40
2018-07-16T07:19:01.497Z,17.38
2018-07-16T07:20:01.661Z,17.51
2018-07-16T07:21:01.467Z,17.58
2018-07-16T07:22:01.467Z,17.72
2018-07-16T07:23:01.451Z,17.71
2018-07-16T07:24:10.966Z,17.81
2018-07-16T07:25:01.521Z,17.84
2018-07-16T07:26:01.468Z,17.89
2018-07-16T07:27:01.458Z,17.86
2018-07-16T07:28:01.448Z,17.90
2018-07-16T07:29:01.516Z,17.92
2018-07-16T07:30:01.502Z,17.95
2018-07-16T07:31:01.980Z,18.00
2018-07-16T07:32:01.359Z,18.02
2018-07-16T07:33:01.335Z,18.03
2018-07-16T07:34:01.324Z,17.99
2018-07-16T07:35:01.405Z,18.15
2018-07-16T07:36:01.322Z,18.21
2018-07-16T07:37:01.286Z,18.20
2018-07-16T07:38:01.990Z,18.25
2018-07-16T07:39:01.280Z,18.23
2018-07-16T07:40:01.257Z,18.21
2018-07-16T07:41:01.269Z,18.33
2018-07-16T07:42:01.233Z,18.30
2018-07-16T07:43:01.223Z,18.36
2018-07-16T07:44:01.214Z,18.44
2018-07-16T07:45:01.224Z,18.47
2018-07-16T07:46:01.214Z,18.52
2018-07-16T07:47:01.182Z,18.45
2018-07-16T07:48:01.171Z,18.51
2018-07-16T07:49:01.157Z,18.65
2018-07-16T07:50:01.153Z,18.65
2018-07-16T07:51:01.153Z,18.75
2018-07-16T07:52:01.130Z,18.73
2018-07-16T07:53:01.111Z,18.80
2018-07-16T07:54:01.100Z,18.84
2018-07-16T07:55:01.640Z,18.81
2018-07-16T07:56:01.083Z,18.85
2018-07-16T07:57:01.125Z,18.95
2018-07-16T07:58:01.048Z,19.04
2018-07-16T07:59:01.050Z,18.99
2018-07-16T08:00:01.040Z,19.18
2018-07-16T08:01:01.026Z,19.14
2018-07-16T08:02:01.011Z,19.16
2018-07-16T08:03:01.034Z,19.16
2018-07-16T08:04:00.992Z,19.19
2018-07-16T08:05:00.973Z,19.11
2018-07-16T08:06:01.492Z,19.16
2018-07-16T08:07:00.955Z,19.14
2018-07-16T08:08:01.000Z,19.08
2018-07-16T08:09:00.953Z,19.08
2018-07-16T08:10:01.485Z,19.04
2018-07-16T08:11:00.915Z,19.08
2018-07-16T08:12:00.906Z,19.10
2018-07-16T08:13:00.890Z,19.14
2018-07-16T08:14:00.973Z,19.16
2018-07-16T08:15:00.971Z,19.21
2018-07-16T08:16:00.857Z,19.18
2018-07-16T08:17:00.847Z,19.25
2018-07-16T08:18:00.834Z,19.29
2018-07-16T08:19:00.825Z,19.32
2018-07-16T08:20:00.875Z,19.32
2018-07-16T08:21:00.865Z,19.37
2018-07-16T08:22:00.807Z,19.37
2018-07-16T08:23:00.815Z,19.44
2018-07-16T08:24:00.777Z,19.47
2018-07-16T08:25:00.766Z,19.55
2018-07-16T08:26:00.777Z,19.69
2018-07-16T08:27:00.737Z,19.69
2018-07-16T08:28:00.787Z,19.65
2018-07-16T08:29:00.718Z,19.76
2018-07-16T08:30:00.698Z,19.84
2018-07-16T08:31:00.719Z,19.86
2018-07-16T08:32:00.701Z,19.96
2018-07-16T08:33:00.671Z,20.03
2018-07-16T08:34:00.660Z,19.94
2018-07-16T08:35:00.644Z,19.92
2018-07-16T08:36:00.635Z,20.01
2018-07-16T08:37:00.640Z,20.10
2018-07-16T08:38:00.633Z,20.24
2018-07-16T08:39:00.703Z,20.28
2018-07-16T08:40:00.595Z,20.43
2018-07-16T08:41:00.584Z,20.57
2018-07-16T08:42:00.622Z,20.64
2018-07-16T08:43:00.555Z,20.67
2018-07-16T08:44:00.559Z,20.67
2018-07-16T08:45:00.538Z,20.85
2018-07-16T08:46:00.535Z,20.85
2018-07-16T08:47:00.512Z,20.97
2018-07-16T08:48:00.511Z,20.91
2018-07-16T08:49:00.489Z,21.03
2018-07-16T08:50:00.495Z,21.06
2018-07-16T08:51:00.473Z,21.10
2018-07-16T08:52:00.522Z,21.25
2018-07-16T08:53:00.477Z,21.42
2018-07-16T08:54:00.440Z,21.42
2018-07-16T08:55:00.439Z,21.42
2018-07-16T08:56:00.416Z,21.43
2018-07-16T08:57:00.400Z,21.50
2018-07-16T08:58:00.387Z,21.46
2018-07-16T08:59:00.412Z,21.42
2018-07-16T09:00:00.367Z,21.40
2018-07-16T09:01:00.378Z,21.31
2018-07-16T09:02:00.354Z,21.34
2018-07-16T09:03:00.338Z,21.37
2018-07-16T09:04:00.405Z,21.32
2018-07-16T09:05:00.313Z,21.40
2018-07-16T09:06:00.305Z,21.37
2018-07-16T09:07:00.341Z,21.37
2018-07-16T09:08:00.286Z,21.37
2018-07-16T09:09:00.268Z,21.46
2018-07-16T09:10:00.269Z,21.42
2018-07-16T09:11:00.379Z,21.52
2018-07-16T09:12:00.238Z,21.42
2018-07-16T09:13:00.245Z,21.44
2018-07-16T09:14:00.212Z,21.49
2018-07-16T09:15:00.235Z,21.49
2018-07-16T09:16:00.203Z,21.47
2018-07-16T09:17:00.279Z,21.58
2018-07-16T09:18:00.171Z,21.58
2018-07-16T09:19:00.176Z,21.61
2018-07-16T09:20:00.143Z,21.61
2018-07-16T09:21:00.146Z,21.56
2018-07-16T09:22:00.124Z,21.58
2018-07-16T09:23:00.112Z,21.59
2018-07-16T09:24:00.099Z,21.54
2018-07-16T09:25:00.103Z,21.47
2018-07-16T09:26:00.100Z,21.53
2018-07-16T09:27:00.064Z,21.61
2018-07-16T09:28:00.058Z,21.68
2018-07-16T09:29:00.048Z,21.80
2018-07-16T09:30:00.040Z,21.92
2018-07-16T09:31:00.053Z,22.05
2018-07-16T09:32:00.024Z,22.18
2018-07-16T09:32:59.997Z,22.21
2018-07-16T09:33:59.983Z,22.30
2018-07-16T09:34:59.977Z,22.37
2018-07-16T09:35:59.963Z,22.45
2018-07-16T09:36:59.967Z,22.49
2018-07-16T09:37:59.985Z,22.57
2018-07-16T09:38:59.939Z,22.67
2018-07-16T09:39:59.924Z,22.58
2018-07-16T09:40:59.910Z,22.65
2018-07-16T09:41:59.902Z,22.65
2018-07-16T09:42:59.904Z,22.55
2018-07-16T09:43:59.899Z,22.54
2018-07-16T09:44:59.866Z,22.47
2018-07-16T09:45:59.859Z,22.46
2018-07-16T09:46:59.849Z,22.45
2018-07-16T09:47:59.834Z,22.61
2018-07-16T09:48:59.865Z,22.65
2018-07-16T09:49:59.814Z,22.76
2018-07-16T09:50:59.797Z,22.86
2018-07-16T09:51:59.790Z,22.86
2018-07-16T09:52:59.780Z,22.77
2018-07-16T09:53:59.769Z,22.82
2018-07-16T09:54:59.787Z,22.80
2018-07-16T09:55:59.755Z,22.90
2018-07-16T09:56:59.738Z,22.86
2018-07-16T09:57:59.723Z,22.75
2018-07-16T09:58:59.721Z,22.77
2018-07-16T09:59:59.736Z,22.88
2018-07-16T10:00:59.702Z,22.97
2018-07-16T10:01:59.680Z,22.91
2018-07-16T10:02:59.670Z,23.00
2018-07-16T10:03:59.658Z,23.15
2018-07-16T10:04:59.655Z,23.35
2018-07-16T10:05:59.655Z,23.54
2018-07-16T10:06:59.641Z,23.42
2018-07-16T10:07:59.609Z,23.51
2018-07-16T10:08:59.608Z,23.50
2018-07-16T10:09:59.596Z,23.54
2018-07-16T10:10:59.596Z,23.55
2018-07-16T10:11:59.574Z,23.55
2018-07-16T10:12:59.584Z,23.58
2018-07-16T10:13:59.548Z,23.61
2018-07-16T10:14:59.544Z,23.72
2018-07-16T10:15:59.568Z,23.84
2018-07-16T10:16:59.527Z,23.93
2018-07-16T10:17:59.511Z,24.00
2018-07-16T10:18:59.536Z,24.13
2018-07-16T10:19:59.496Z,24.10
2018-07-16T10:20:59.482Z,24.21
2018-07-16T10:22:00.543Z,24.25
2018-07-16T10:22:59.459Z,24.35
2018-07-16T10:23:59.456Z,24.45
2018-07-16T10:24:59.447Z,24.50
2018-07-16T10:25:59.438Z,24.45
2018-07-16T10:26:59.462Z,24.47
2018-07-16T10:27:59.402Z,24.61
2018-07-16T10:28:59.391Z,24.50
2018-07-16T10:29:59.390Z,24.43
2018-07-16T10:30:59.369Z,24.47
2018-07-16T10:31:59.360Z,24.58
2018-07-16T10:32:59.364Z,24.62
2018-07-16T10:33:59.410Z,24.68
2018-07-16T10:34:59.328Z,24.57
2018-07-16T10:35:59.323Z,24.61
2018-07-16T10:36:59.303Z,24.62
2018-07-16T10:37:59.310Z,24.73
2018-07-16T10:38:59.289Z,24.90
2018-07-16T10:39:59.273Z,24.96
2018-07-16T10:40:59.250Z,24.95
2018-07-16T10:41:59.259Z,25.05
2018-07-16T10:42:59.267Z,25.05
2018-07-16T10:43:59.223Z,25.18
2018-07-16T10:44:59.216Z,25.32
2018-07-16T10:45:59.199Z,25.25
2018-07-16T10:46:59.192Z,25.40
2018-07-16T10:47:59.191Z,25.40
2018-07-16T10:48:59.177Z,25.46
2018-07-16T10:49:59.157Z,25.70
2018-07-16T10:50:59.147Z,25.67
2018-07-16T10:51:59.133Z,25.72
2018-07-16T10:52:59.131Z,25.64
2018-07-16T10:53:59.143Z,25.51
2018-07-16T10:54:59.102Z,25.46
2018-07-16T10:55:59.095Z,25.60
2018-07-16T10:56:59.080Z,25.62
2018-07-16T10:57:59.067Z,25.69
2018-07-16T10:58:59.055Z,25.85
2018-07-16T10:59:59.096Z,25.79
2018-07-16T11:00:59.035Z,25.80
2018-07-16T11:01:59.046Z,25.77
2018-07-16T11:02:59.055Z,25.62
2018-07-16T11:03:59.008Z,25.40
2018-07-16T11:04:58.990Z,25.28
2018-07-16T11:05:59.005Z,25.42
2018-07-16T11:06:58.968Z,25.57
2018-07-16T11:07:58.959Z,25.72
2018-07-16T11:08:59.520Z,25.73
2018-07-16T11:09:58.933Z,25.70
2018-07-16T11:10:58.952Z,25.57
2018-07-16T11:11:58.929Z,25.51
2018-07-16T11:12:58.905Z,25.25
2018-07-16T11:13:58.906Z,25.43
2018-07-16T11:14:58.892Z,25.38
2018-07-16T11:15:58.866Z,25.32
2018-07-16T11:16:58.884Z,25.43
2018-07-16T11:17:58.878Z,25.52
2018-07-16T11:18:58.840Z,25.58
2018-07-16T11:19:58.843Z,25.39
2018-07-16T11:20:58.916Z,25.21
2018-07-16T11:21:58.859Z,25.25
2018-07-16T11:22:58.823Z,25.42
2018-07-16T11:23:58.798Z,25.51
2018-07-16T11:24:58.809Z,25.47
2018-07-16T11:25:58.780Z,25.45
2018-07-16T11:26:58.800Z,25.46
2018-07-16T11:27:58.772Z,25.47
2018-07-16T11:28:58.736Z,25.43
2018-07-16T11:29:58.727Z,25.38
2018-07-16T11:30:58.716Z,25.25
2018-07-16T11:31:58.714Z,25.36
2018-07-16T11:32:58.756Z,25.36
2018-07-16T11:33:58.685Z,25.36
2018-07-16T11:34:58.681Z,25.64
2018-07-16T11:35:58.659Z,25.73
2018-07-16T11:36:58.661Z,25.75
2018-07-16T11:37:58.652Z,25.67
2018-07-16T11:38:58.663Z,25.62
2018-07-16T11:39:58.643Z,25.51
2018-07-16T11:40:58.618Z,25.55
2018-07-16T11:41:58.629Z,25.55
2018-07-16T11:42:58.601Z,25.57
2018-07-16T11:43:58.625Z,25.54
2018-07-16T11:44:58.595Z,25.33
2018-07-16T11:45:58.590Z,25.08
2018-07-16T11:46:58.542Z,25.02
2018-07-16T11:47:58.529Z,25.06
2018-07-16T11:48:58.581Z,25.20
2018-07-16T11:49:58.544Z,25.25
2018-07-16T11:50:58.503Z,25.39
2018-07-16T11:51:58.498Z,25.38
2018-07-16T11:52:58.485Z,25.28
2018-07-16T11:53:58.494Z,25.27
2018-07-16T11:54:58.465Z,25.17
2018-07-16T11:55:58.501Z,25.20
2018-07-16T11:56:58.445Z,25.21
2018-07-16T11:57:58.448Z,25.47
2018-07-16T11:58:58.447Z,25.40
2018-07-16T11:59:58.407Z,25.51
2018-07-16T12:00:58.453Z,25.43
2018-07-16T12:01:58.480Z,25.60
2018-07-16T12:02:58.380Z,25.52
2018-07-16T12:03:58.381Z,25.43
2018-07-16T12:04:58.352Z,25.50
2018-07-16T12:05:58.336Z,25.45
2018-07-16T12:06:58.373Z,25.46
2018-07-16T12:07:58.321Z,25.40
2018-07-16T12:08:58.311Z,25.45
2018-07-16T12:09:58.356Z,25.36
2018-07-16T12:10:58.296Z,25.51
2018-07-16T12:11:58.326Z,25.64
2018-07-16T12:12:58.273Z,25.82
2018-07-16T12:13:58.262Z,25.98
2018-07-16T12:14:58.257Z,26.13
2018-07-16T12:15:58.252Z,26.12
2018-07-16T12:16:58.224Z,26.26
2018-07-16T12:17:58.234Z,26.37
2018-07-16T12:18:58.236Z,26.43
2018-07-16T12:19:58.219Z,26.65
2018-07-16T12:20:58.198Z,26.69
2018-07-16T12:21:58.168Z,26.80
2018-07-16T12:22:58.215Z,26.88
2018-07-16T12:23:58.153Z,26.81
2018-07-16T12:24:58.182Z,26.72
2018-07-16T12:25:58.268Z,26.66
2018-07-16T12:26:58.124Z,26.62
2018-07-16T12:27:58.131Z,26.58
2018-07-16T12:28:58.130Z,26.36
2018-07-16T12:29:58.227Z,26.36
2018-07-16T12:30:59.104Z,26.25
2018-07-16T12:31:58.062Z,26.25
2018-07-16T12:32:59.114Z,26.36
2018-07-16T12:33:58.082Z,26.47
2018-07-16T12:34:58.032Z,26.60
2018-07-16T12:35:58.027Z,26.65
2018-07-16T12:36:58.011Z,26.76
2018-07-16T12:37:58.000Z,27.04
2018-07-16T12:38:58.016Z,27.18
2018-07-16T12:39:58.005Z,27.09
2018-07-16T12:40:57.977Z,27.07
2018-07-16T12:41:57.963Z,27.18
2018-07-16T12:42:57.942Z,27.21
2018-07-16T12:43:57.950Z,26.95
2018-07-16T12:44:57.964Z,26.80
2018-07-16T12:45:57.905Z,26.62
2018-07-16T12:46:57.971Z,26.39
2018-07-16T12:47:57.896Z,26.28
2018-07-16T12:48:57.916Z,26.47
2018-07-16T12:49:57.876Z,26.66
2018-07-16T12:50:57.886Z,26.69
2018-07-16T12:51:57.844Z,26.81